Petoskey, Michigan
Current Conditions -  °F | °C
As of 1:14 AM on Thursday 23 Oct 2014 (Local Time) from KMGN Reporting Station
Clear Clear  
Wind Chill: 32°   Ceiling: Unl
Heat Index: 32°   Visibility: 10mi
Dew Point: 30°   Wind: 3mph
Humidity: 93%   Direction: 50°NE
Pressure: 30.28"   Gusts: NA
Location:  45.38°N, 84.96°W
Report Text: KMGN 230514Z AUTO 05003KT 10SM CLR 00/M01 A3028 RMK AO2 T10021012
Loading
Personal Weather Stations






























Interactive Weather Map New forecast layout! Learn more

10-Day Weather Forecast

Advertisements
Track Severe Weather on mobile